sensor_id;sensor_type;location;lat;lon;timestamp;P1;durP1;ratioP1;P2;durP2;ratioP2
5521;SDS011;2783;48.730;8.006;2024-03-23T00:51:42;0.30;;;0.30;;
5521;SDS011;2783;48.730;8.006;2024-03-23T00:54:07;0.40;;;0.40;;
5521;SDS011;2783;48.730;8.006;2024-03-23T00:56:33;0.40;;;0.40;;
5521;SDS011;2783;48.730;8.006;2024-03-23T00:58:58;0.40;;;0.40;;
5521;SDS011;2783;48.730;8.006;2024-03-23T01:01:24;0.40;;;0.40;;
5521;SDS011;2783;48.730;8.006;2024-03-23T01:03:49;0.40;;;0.40;;
5521;SDS011;2783;48.730;8.006;2024-03-23T01:06:14;0.40;;;0.40;;
5521;SDS011;2783;48.730;8.006;2024-03-23T01:08:40;0.30;;;0.30;;
5521;SDS011;2783;48.730;8.006;2024-03-23T01:11:05;0.30;;;0.30;;
5521;SDS011;2783;48.730;8.006;2024-03-23T01:13:31;0.40;;;0.40;;
5521;SDS011;2783;48.730;8.006;2024-03-23T01:15:56;0.40;;;0.40;;
5521;SDS011;2783;48.730;8.006;2024-03-23T01:18:23;0.40;;;0.40;;
5521;SDS011;2783;48.730;8.006;2024-03-23T01:20:49;0.30;;;0.30;;
5521;SDS011;2783;48.730;8.006;2024-03-23T01:23:14;0.30;;;0.30;;
5521;SDS011;2783;48.730;8.006;2024-03-23T01:25:40;0.30;;;0.30;;
5521;SDS011;2783;48.730;8.006;2024-03-23T01:28:06;0.35;;;0.35;;
5521;SDS011;2783;48.730;8.006;2024-03-23T01:30:35;0.40;;;0.40;;
5521;SDS011;2783;48.730;8.006;2024-03-23T01:33:01;0.30;;;0.30;;
5521;SDS011;2783;48.730;8.006;2024-03-23T01:35:27;0.30;;;0.30;;
5521;SDS011;2783;48.730;8.006;2024-03-23T01:37:53;0.40;;;0.40;;
5521;SDS011;2783;48.730;8.006;2024-03-23T01:40:19;0.30;;;0.30;;
5521;SDS011;2783;48.730;8.006;2024-03-23T01:42:57;0.32;;;0.32;;
5521;SDS011;2783;48.730;8.006;2024-03-23T01:45:23;0.40;;;0.40;;
5521;SDS011;2783;48.730;8.006;2024-03-23T01:47:49;0.40;;;0.40;;
5521;SDS011;2783;48.730;8.006;2024-03-23T01:50:16;0.40;;;0.40;;
5521;SDS011;2783;48.730;8.006;2024-03-23T01:52:42;0.40;;;0.40;;
5521;SDS011;2783;48.730;8.006;2024-03-23T01:55:07;0.40;;;0.40;;
5521;SDS011;2783;48.730;8.006;2024-03-23T01:57:33;0.40;;;0.40;;
5521;SDS011;2783;48.730;8.006;2024-03-23T01:59:59;0.40;;;0.40;;
5521;SDS011;2783;48.730;8.006;2024-03-23T02:02:24;0.40;;;0.40;;
5521;SDS011;2783;48.730;8.006;2024-03-23T02:04:49;0.40;;;0.40;;
5521;SDS011;2783;48.730;8.006;2024-03-23T02:07:15;0.40;;;0.40;;
5521;SDS011;2783;48.730;8.006;2024-03-23T02:09:40;0.40;;;0.40;;
5521;SDS011;2783;48.730;8.006;2024-03-23T02:12:05;0.40;;;0.40;;
5521;SDS011;2783;48.730;8.006;2024-03-23T02:14:32;0.40;;;0.40;;
5521;SDS011;2783;48.730;8.006;2024-03-23T02:16:57;0.40;;;0.40;;
5521;SDS011;2783;48.730;8.006;2024-03-23T02:19:23;0.40;;;0.40;;
5521;SDS011;2783;48.730;8.006;2024-03-23T02:21:49;0.32;;;0.32;;
5521;SDS011;2783;48.730;8.006;2024-03-23T02:24:14;0.40;;;0.40;;
5521;SDS011;2783;48.730;8.006;2024-03-23T02:26:39;0.30;;;0.30;;
5521;SDS011;2783;48.730;8.006;2024-03-23T02:29:05;0.40;;;0.40;;
5521;SDS011;2783;48.730;8.006;2024-03-23T02:31:30;0.50;;;0.50;;
5521;SDS011;2783;48.730;8.006;2024-03-23T02:33:56;0.40;;;0.40;;
5521;SDS011;2783;48.730;8.006;2024-03-23T02:36:21;0.40;;;0.40;;
5521;SDS011;2783;48.730;8.006;2024-03-23T02:38:46;0.40;;;0.40;;
5521;SDS011;2783;48.730;8.006;2024-03-23T02:41:12;0.40;;;0.40;;
5521;SDS011;2783;48.730;8.006;2024-03-23T02:43:38;0.40;;;0.40;;
5521;SDS011;2783;48.730;8.006;2024-03-23T02:46:04;0.32;;;0.32;;
5521;SDS011;2783;48.730;8.006;2024-03-23T02:48:29;0.40;;;0.40;;
5521;SDS011;2783;48.730;8.006;2024-03-23T02:50:55;0.40;;;0.40;;
5521;SDS011;2783;48.730;8.006;2024-03-23T02:53:20;0.40;;;0.40;;
5521;SDS011;2783;48.730;8.006;2024-03-23T02:55:45;0.40;;;0.40;;
5521;SDS011;2783;48.730;8.006;2024-03-23T02:58:11;0.40;;;0.40;;
5521;SDS011;2783;48.730;8.006;2024-03-23T03:00:36;0.40;;;0.40;;
5521;SDS011;2783;48.730;8.006;2024-03-23T03:03:02;0.30;;;0.30;;
5521;SDS011;2783;48.730;8.006;2024-03-23T03:05:28;0.40;;;0.40;;
5521;SDS011;2783;48.730;8.006;2024-03-23T03:07:53;0.40;;;0.40;;
5521;SDS011;2783;48.730;8.006;2024-03-23T03:10:19;0.40;;;0.40;;
5521;SDS011;2783;48.730;8.006;2024-03-23T03:12:44;0.40;;;0.40;;
5521;SDS011;2783;48.730;8.006;2024-03-23T03:15:10;0.30;;;0.30;;
5521;SDS011;2783;48.730;8.006;2024-03-23T03:17:35;0.40;;;0.40;;
5521;SDS011;2783;48.730;8.006;2024-03-23T03:20:01;0.40;;;0.40;;
5521;SDS011;2783;48.730;8.006;2024-03-23T03:22:26;0.40;;;0.40;;
5521;SDS011;2783;48.730;8.006;2024-03-23T03:24:51;0.35;;;0.35;;
5521;SDS011;2783;48.730;8.006;2024-03-23T03:27:17;0.30;;;0.30;;
5521;SDS011;2783;48.730;8.006;2024-03-23T03:29:42;0.28;;;0.28;;
5521;SDS011;2783;48.730;8.006;2024-03-23T03:32:08;0.40;;;0.40;;
5521;SDS011;2783;48.730;8.006;2024-03-23T03:34:33;0.40;;;0.40;;
5521;SDS011;2783;48.730;8.006;2024-03-23T03:36:59;0.40;;;0.40;;
5521;SDS011;2783;48.730;8.006;2024-03-23T03:39:25;0.40;;;0.40;;
5521;SDS011;2783;48.730;8.006;2024-03-23T03:41:51;0.30;;;0.30;;
5521;SDS011;2783;48.730;8.006;2024-03-23T03:44:16;0.40;;;0.40;;
5521;SDS011;2783;48.730;8.006;2024-03-23T03:46:42;0.40;;;0.40;;
5521;SDS011;2783;48.730;8.006;2024-03-23T03:49:08;0.40;;;0.40;;
5521;SDS011;2783;48.730;8.006;2024-03-23T03:51:33;0.50;;;0.50;;
5521;SDS011;2783;48.730;8.006;2024-03-23T03:53:59;0.40;;;0.40;;
5521;SDS011;2783;48.730;8.006;2024-03-23T03:56:24;0.40;;;0.40;;
5521;SDS011;2783;48.730;8.006;2024-03-23T03:58:50;0.40;;;0.40;;
5521;SDS011;2783;48.730;8.006;2024-03-23T04:01:15;0.40;;;0.40;;
5521;SDS011;2783;48.730;8.006;2024-03-23T04:03:41;0.40;;;0.40;;
5521;SDS011;2783;48.730;8.006;2024-03-23T04:06:09;0.40;;;0.40;;
5521;SDS011;2783;48.730;8.006;2024-03-23T04:08:34;0.40;;;0.40;;
5521;SDS011;2783;48.730;8.006;2024-03-23T04:11:00;0.40;;;0.40;;
5521;SDS011;2783;48.730;8.006;2024-03-23T04:13:26;0.40;;;0.40;;
5521;SDS011;2783;48.730;8.006;2024-03-23T04:15:54;0.40;;;0.40;;
5521;SDS011;2783;48.730;8.006;2024-03-23T04:18:20;0.40;;;0.40;;
5521;SDS011;2783;48.730;8.006;2024-03-23T04:20:47;0.40;;;0.40;;
5521;SDS011;2783;48.730;8.006;2024-03-23T04:23:13;0.40;;;0.40;;
5521;SDS011;2783;48.730;8.006;2024-03-23T04:25:38;0.50;;;0.50;;
5521;SDS011;2783;48.730;8.006;2024-03-23T04:28:04;0.40;;;0.40;;
5521;SDS011;2783;48.730;8.006;2024-03-23T04:30:29;0.40;;;0.40;;
5521;SDS011;2783;48.730;8.006;2024-03-23T04:32:55;0.50;;;0.50;;
5521;SDS011;2783;48.730;8.006;2024-03-23T04:35:21;0.40;;;0.40;;
5521;SDS011;2783;48.730;8.006;2024-03-23T04:37:50;0.40;;;0.40;;
5521;SDS011;2783;48.730;8.006;2024-03-23T04:40:17;0.50;;;0.50;;
5521;SDS011;2783;48.730;8.006;2024-03-23T04:42:43;0.50;;;0.50;;
5521;SDS011;2783;48.730;8.006;2024-03-23T04:45:08;0.50;;;0.50;;
5521;SDS011;2783;48.730;8.006;2024-03-23T04:47:35;0.50;;;0.50;;
5521;SDS011;2783;48.730;8.006;2024-03-23T04:50:02;0.50;;;0.50;;
5521;SDS011;2783;48.730;8.006;2024-03-23T04:52:28;0.50;;;0.50;;
5521;SDS011;2783;48.730;8.006;2024-03-23T04:54:54;0.50;;;0.50;;
5521;SDS011;2783;48.730;8.006;2024-03-23T04:57:19;0.50;;;0.50;;
5521;SDS011;2783;48.730;8.006;2024-03-23T04:59:45;0.40;;;0.40;;
5521;SDS011;2783;48.730;8.006;2024-03-23T05:02:10;0.50;;;0.50;;
5521;SDS011;2783;48.730;8.006;2024-03-23T05:04:36;0.40;;;0.40;;
5521;SDS011;2783;48.730;8.006;2024-03-23T05:07:02;0.50;;;0.50;;
5521;SDS011;2783;48.730;8.006;2024-03-23T05:09:28;0.50;;;0.50;;
5521;SDS011;2783;48.730;8.006;2024-03-23T05:11:55;0.55;;;0.55;;
5521;SDS011;2783;48.730;8.006;2024-03-23T05:14:21;0.50;;;0.50;;
5521;SDS011;2783;48.730;8.006;2024-03-23T05:16:47;0.52;;;0.52;;
5521;SDS011;2783;48.730;8.006;2024-03-23T05:19:13;0.50;;;0.50;;
5521;SDS011;2783;48.730;8.006;2024-03-23T05:21:38;0.60;;;0.60;;
5521;SDS011;2783;48.730;8.006;2024-03-23T05:24:03;0.50;;;0.50;;
5521;SDS011;2783;48.730;8.006;2024-03-23T05:26:29;0.50;;;0.50;;
5521;SDS011;2783;48.730;8.006;2024-03-23T05:28:55;0.60;;;0.60;;
5521;SDS011;2783;48.730;8.006;2024-03-23T05:31:24;0.50;;;0.50;;
5521;SDS011;2783;48.730;8.006;2024-03-23T05:33:54;0.50;;;0.50;;
5521;SDS011;2783;48.730;8.006;2024-03-23T05:36:19;0.60;;;0.60;;
5521;SDS011;2783;48.730;8.006;2024-03-23T05:38:45;0.57;;;0.57;;
5521;SDS011;2783;48.730;8.006;2024-03-23T05:41:11;0.50;;;0.50;;
5521;SDS011;2783;48.730;8.006;2024-03-23T05:43:37;0.60;;;0.60;;
5521;SDS011;2783;48.730;8.006;2024-03-23T05:46:03;0.60;;;0.60;;
5521;SDS011;2783;48.730;8.006;2024-03-23T05:48:30;0.57;;;0.57;;
5521;SDS011;2783;48.730;8.006;2024-03-23T05:50:56;0.50;;;0.50;;
5521;SDS011;2783;48.730;8.006;2024-03-23T05:53:23;0.50;;;0.50;;
5521;SDS011;2783;48.730;8.006;2024-03-23T05:55:49;0.57;;;0.57;;
5521;SDS011;2783;48.730;8.006;2024-03-23T05:58:16;0.50;;;0.50;;
5521;SDS011;2783;48.730;8.006;2024-03-23T06:00:42;0.60;;;0.60;;
5521;SDS011;2783;48.730;8.006;2024-03-23T06:03:08;0.50;;;0.50;;
5521;SDS011;2783;48.730;8.006;2024-03-23T06:05:35;0.60;;;0.60;;
5521;SDS011;2783;48.730;8.006;2024-03-23T06:08:01;0.60;;;0.60;;
5521;SDS011;2783;48.730;8.006;2024-03-23T06:10:27;0.60;;;0.60;;
5521;SDS011;2783;48.730;8.006;2024-03-23T06:12:53;0.60;;;0.60;;
5521;SDS011;2783;48.730;8.006;2024-03-23T06:15:19;0.60;;;0.60;;
5521;SDS011;2783;48.730;8.006;2024-03-23T06:17:44;0.60;;;0.60;;
5521;SDS011;2783;48.730;8.006;2024-03-23T06:20:10;0.57;;;0.57;;
5521;SDS011;2783;48.730;8.006;2024-03-23T06:22:36;0.57;;;0.57;;
5521;SDS011;2783;48.730;8.006;2024-03-23T06:25:02;0.60;;;0.60;;
5521;SDS011;2783;48.730;8.006;2024-03-23T06:27:28;0.60;;;0.60;;
5521;SDS011;2783;48.730;8.006;2024-03-23T06:29:53;0.60;;;0.60;;
5521;SDS011;2783;48.730;8.006;2024-03-23T06:32:18;0.60;;;0.60;;
5521;SDS011;2783;48.730;8.006;2024-03-23T06:34:45;0.70;;;0.70;;
5521;SDS011;2783;48.730;8.006;2024-03-23T06:37:11;0.60;;;0.60;;
5521;SDS011;2783;48.730;8.006;2024-03-23T06:39:36;0.60;;;0.60;;
5521;SDS011;2783;48.730;8.006;2024-03-23T06:42:02;0.60;;;0.60;;
5521;SDS011;2783;48.730;8.006;2024-03-23T06:44:28;0.60;;;0.60;;
5521;SDS011;2783;48.730;8.006;2024-03-23T06:46:54;0.60;;;0.60;;
5521;SDS011;2783;48.730;8.006;2024-03-23T06:49:19;0.60;;;0.60;;
5521;SDS011;2783;48.730;8.006;2024-03-23T06:51:45;0.50;;;0.50;;
5521;SDS011;2783;48.730;8.006;2024-03-23T06:54:11;0.50;;;0.50;;
5521;SDS011;2783;48.730;8.006;2024-03-23T06:56:37;0.57;;;0.57;;
5521;SDS011;2783;48.730;8.006;2024-03-23T06:59:02;0.60;;;0.60;;
5521;SDS011;2783;48.730;8.006;2024-03-23T07:01:28;0.60;;;0.60;;
5521;SDS011;2783;48.730;8.006;2024-03-23T07:03:54;0.60;;;0.60;;
5521;SDS011;2783;48.730;8.006;2024-03-23T07:06:20;0.60;;;0.60;;
5521;SDS011;2783;48.730;8.006;2024-03-23T07:08:45;0.60;;;0.60;;
5521;SDS011;2783;48.730;8.006;2024-03-23T07:11:11;0.50;;;0.50;;
5521;SDS011;2783;48.730;8.006;2024-03-23T07:13:36;0.60;;;0.60;;
5521;SDS011;2783;48.730;8.006;2024-03-23T07:16:02;0.70;;;0.70;;
5521;SDS011;2783;48.730;8.006;2024-03-23T07:18:27;0.68;;;0.68;;
5521;SDS011;2783;48.730;8.006;2024-03-23T07:20:54;0.60;;;0.60;;
5521;SDS011;2783;48.730;8.006;2024-03-23T07:23:21;0.60;;;0.60;;
5521;SDS011;2783;48.730;8.006;2024-03-23T07:25:56;0.60;;;0.60;;
5521;SDS011;2783;48.730;8.006;2024-03-23T07:28:22;0.60;;;0.60;;
5521;SDS011;2783;48.730;8.006;2024-03-23T07:30:47;0.60;;;0.60;;
5521;SDS011;2783;48.730;8.006;2024-03-23T07:33:12;0.60;;;0.60;;
5521;SDS011;2783;48.730;8.006;2024-03-23T07:35:38;0.50;;;0.50;;
5521;SDS011;2783;48.730;8.006;2024-03-23T07:38:03;0.50;;;0.50;;
5521;SDS011;2783;48.730;8.006;2024-03-23T07:40:30;0.50;;;0.50;;
5521;SDS011;2783;48.730;8.006;2024-03-23T07:42:56;0.55;;;0.55;;
5521;SDS011;2783;48.730;8.006;2024-03-23T07:45:21;0.50;;;0.50;;
5521;SDS011;2783;48.730;8.006;2024-03-23T07:47:47;0.50;;;0.50;;
5521;SDS011;2783;48.730;8.006;2024-03-23T07:50:12;0.50;;;0.50;;
5521;SDS011;2783;48.730;8.006;2024-03-23T07:52:38;0.40;;;0.40;;
5521;SDS011;2783;48.730;8.006;2024-03-23T07:55:03;0.40;;;0.40;;
5521;SDS011;2783;48.730;8.006;2024-03-23T07:57:29;0.40;;;0.40;;
5521;SDS011;2783;48.730;8.006;2024-03-23T07:59:54;0.50;;;0.50;;
5521;SDS011;2783;48.730;8.006;2024-03-23T08:02:19;0.40;;;0.40;;
5521;SDS011;2783;48.730;8.006;2024-03-23T08:04:45;0.50;;;0.50;;
5521;SDS011;2783;48.730;8.006;2024-03-23T08:07:10;0.50;;;0.50;;
5521;SDS011;2783;48.730;8.006;2024-03-23T08:09:35;0.50;;;0.50;;
5521;SDS011;2783;48.730;8.006;2024-03-23T08:12:01;0.40;;;0.40;;
5521;SDS011;2783;48.730;8.006;2024-03-23T08:14:27;0.50;;;0.50;;
5521;SDS011;2783;48.730;8.006;2024-03-23T08:16:54;0.50;;;0.50;;
5521;SDS011;2783;48.730;8.006;2024-03-23T08:19:20;0.40;;;0.40;;
5521;SDS011;2783;48.730;8.006;2024-03-23T08:21:45;0.50;;;0.50;;
5521;SDS011;2783;48.730;8.006;2024-03-23T08:24:10;0.50;;;0.50;;
5521;SDS011;2783;48.730;8.006;2024-03-23T08:26:36;0.50;;;0.50;;
5521;SDS011;2783;48.730;8.006;2024-03-23T08:29:02;0.50;;;0.50;;
5521;SDS011;2783;48.730;8.006;2024-03-23T08:31:28;0.60;;;0.60;;
5521;SDS011;2783;48.730;8.006;2024-03-23T08:33:53;0.60;;;0.60;;
5521;SDS011;2783;48.730;8.006;2024-03-23T08:36:19;0.50;;;0.50;;
5521;SDS011;2783;48.730;8.006;2024-03-23T08:38:44;0.50;;;0.50;;
5521;SDS011;2783;48.730;8.006;2024-03-23T08:41:10;0.60;;;0.60;;
5521;SDS011;2783;48.730;8.006;2024-03-23T08:43:36;0.50;;;0.50;;
5521;SDS011;2783;48.730;8.006;2024-03-23T08:46:08;0.50;;;0.50;;
5521;SDS011;2783;48.730;8.006;2024-03-23T08:48:39;0.50;;;0.50;;
5521;SDS011;2783;48.730;8.006;2024-03-23T08:51:08;0.50;;;0.50;;
5521;SDS011;2783;48.730;8.006;2024-03-23T08:53:35;0.40;;;0.40;;
5521;SDS011;2783;48.730;8.006;2024-03-23T08:56:01;0.40;;;0.40;;
5521;SDS011;2783;48.730;8.006;2024-03-23T08:58:28;0.40;;;0.40;;
5521;SDS011;2783;48.730;8.006;2024-03-23T09:00:55;0.30;;;0.30;;
5521;SDS011;2783;48.730;8.006;2024-03-23T09:03:22;0.30;;;0.30;;
5521;SDS011;2783;48.730;8.006;2024-03-23T09:05:48;0.38;;;0.38;;
5521;SDS011;2783;48.730;8.006;2024-03-23T09:08:14;0.30;;;0.30;;
5521;SDS011;2783;48.730;8.006;2024-03-23T09:10:39;0.30;;;0.30;;
5521;SDS011;2783;48.730;8.006;2024-03-23T09:13:05;0.30;;;0.30;;
5521;SDS011;2783;48.730;8.006;2024-03-23T09:15:34;0.30;;;0.30;;
5521;SDS011;2783;48.730;8.006;2024-03-23T09:18:01;0.30;;;0.30;;
5521;SDS011;2783;48.730;8.006;2024-03-23T09:20:28;0.28;;;0.28;;
5521;SDS011;2783;48.730;8.006;2024-03-23T09:22:53;0.30;;;0.30;;
5521;SDS011;2783;48.730;8.006;2024-03-23T09:25:19;0.22;;;0.22;;
5521;SDS011;2783;48.730;8.006;2024-03-23T09:27:48;0.30;;;0.30;;
5521;SDS011;2783;48.730;8.006;2024-03-23T09:30:14;0.30;;;0.30;;
5521;SDS011;2783;48.730;8.006;2024-03-23T09:32:43;0.30;;;0.30;;
5521;SDS011;2783;48.730;8.006;2024-03-23T09:35:09;0.40;;;0.40;;
5521;SDS011;2783;48.730;8.006;2024-03-23T09:37:35;0.40;;;0.40;;
5521;SDS011;2783;48.730;8.006;2024-03-23T09:40:01;0.50;;;0.50;;
5521;SDS011;2783;48.730;8.006;2024-03-23T09:42:27;0.50;;;0.50;;
5521;SDS011;2783;48.730;8.006;2024-03-23T09:44:53;0.50;;;0.50;;
5521;SDS011;2783;48.730;8.006;2024-03-23T09:47:21;0.60;;;0.60;;
5521;SDS011;2783;48.730;8.006;2024-03-23T09:49:47;0.60;;;0.60;;
5521;SDS011;2783;48.730;8.006;2024-03-23T09:52:12;0.60;;;0.60;;
5521;SDS011;2783;48.730;8.006;2024-03-23T09:54:37;0.60;;;0.60;;
5521;SDS011;2783;48.730;8.006;2024-03-23T09:57:03;0.60;;;0.60;;
5521;SDS011;2783;48.730;8.006;2024-03-23T09:59:29;0.60;;;0.60;;
5521;SDS011;2783;48.730;8.006;2024-03-23T10:01:54;0.60;;;0.60;;
5521;SDS011;2783;48.730;8.006;2024-03-23T10:07:20;0.60;;;0.60;;
5521;SDS011;2783;48.730;8.006;2024-03-23T10:09:49;0.50;;;0.50;;
5521;SDS011;2783;48.730;8.006;2024-03-23T10:12:18;0.50;;;0.50;;
5521;SDS011;2783;48.730;8.006;2024-03-23T10:14:44;0.52;;;0.52;;
5521;SDS011;2783;48.730;8.006;2024-03-23T10:17:14;0.50;;;0.50;;
5521;SDS011;2783;48.730;8.006;2024-03-23T10:19:46;0.57;;;0.57;;
5521;SDS011;2783;48.730;8.006;2024-03-23T10:22:14;0.60;;;0.60;;
5521;SDS011;2783;48.730;8.006;2024-03-23T10:24:43;0.50;;;0.50;;
5521;SDS011;2783;48.730;8.006;2024-03-23T10:27:08;0.50;;;0.50;;
5521;SDS011;2783;48.730;8.006;2024-03-23T10:29:34;0.50;;;0.50;;
5521;SDS011;2783;48.730;8.006;2024-03-23T10:32:09;0.40;;;0.40;;
5521;SDS011;2783;48.730;8.006;2024-03-23T10:34:38;0.40;;;0.40;;
5521;SDS011;2783;48.730;8.006;2024-03-23T10:37:04;0.40;;;0.40;;
5521;SDS011;2783;48.730;8.006;2024-03-23T10:39:34;0.47;;;0.47;;
5521;SDS011;2783;48.730;8.006;2024-03-23T10:42:02;0.35;;;0.35;;
5521;SDS011;2783;48.730;8.006;2024-03-23T10:44:31;0.40;;;0.40;;
5521;SDS011;2783;48.730;8.006;2024-03-23T10:47:01;0.40;;;0.40;;
5521;SDS011;2783;48.730;8.006;2024-03-23T10:49:30;0.30;;;0.30;;
5521;SDS011;2783;48.730;8.006;2024-03-23T10:51:59;0.30;;;0.30;;
5521;SDS011;2783;48.730;8.006;2024-03-23T10:54:26;0.30;;;0.30;;
5521;SDS011;2783;48.730;8.006;2024-03-23T10:56:54;0.30;;;0.30;;
5521;SDS011;2783;48.730;8.006;2024-03-23T10:59:25;0.30;;;0.30;;
5521;SDS011;2783;48.730;8.006;2024-03-23T11:01:57;0.40;;;0.40;;
5521;SDS011;2783;48.730;8.006;2024-03-23T11:04:30;0.38;;;0.38;;
5521;SDS011;2783;48.730;8.006;2024-03-23T11:06:56;0.30;;;0.30;;
5521;SDS011;2783;48.730;8.006;2024-03-23T11:12:36;0.40;;;0.40;;
5521;SDS011;2783;48.730;8.006;2024-03-23T11:17:24;0.40;;;0.40;;
5521;SDS011;2783;48.730;8.006;2024-03-23T11:25:15;0.40;;;0.40;;
5521;SDS011;2783;48.730;8.006;2024-03-23T11:27:43;0.40;;;0.40;;
5521;SDS011;2783;48.730;8.006;2024-03-23T11:30:20;0.30;;;0.30;;
5521;SDS011;2783;48.730;8.006;2024-03-23T11:32:50;0.40;;;0.40;;
5521;SDS011;2783;48.730;8.006;2024-03-23T11:35:25;0.50;;;0.50;;
5521;SDS011;2783;48.730;8.006;2024-03-23T11:40:35;0.40;;;0.40;;
5521;SDS011;2783;48.730;8.006;2024-03-23T11:43:07;0.40;;;0.40;;
5521;SDS011;2783;48.730;8.006;2024-03-23T11:45:37;0.50;;;0.50;;
5521;SDS011;2783;48.730;8.006;2024-03-23T11:48:07;0.50;;;0.50;;
5521;SDS011;2783;48.730;8.006;2024-03-23T11:50:36;0.40;;;0.40;;
5521;SDS011;2783;48.730;8.006;2024-03-23T11:53:11;0.40;;;0.40;;
5521;SDS011;2783;48.730;8.006;2024-03-23T11:58:15;0.50;;;0.50;;
5521;SDS011;2783;48.730;8.006;2024-03-23T12:00:42;0.40;;;0.40;;
5521;SDS011;2783;48.730;8.006;2024-03-23T12:03:14;0.50;;;0.50;;
5521;SDS011;2783;48.730;8.006;2024-03-23T12:05:41;0.40;;;0.40;;
5521;SDS011;2783;48.730;8.006;2024-03-23T12:08:28;0.50;;;0.50;;
5521;SDS011;2783;48.730;8.006;2024-03-23T12:11:10;0.50;;;0.50;;
5521;SDS011;2783;48.730;8.006;2024-03-23T12:13:38;0.50;;;0.50;;
5521;SDS011;2783;48.730;8.006;2024-03-23T12:16:10;0.40;;;0.40;;
5521;SDS011;2783;48.730;8.006;2024-03-23T12:18:39;0.40;;;0.40;;
5521;SDS011;2783;48.730;8.006;2024-03-23T12:21:06;0.50;;;0.50;;
5521;SDS011;2783;48.730;8.006;2024-03-23T12:23:32;0.40;;;0.40;;
5521;SDS011;2783;48.730;8.006;2024-03-23T12:25:58;0.40;;;0.40;;
5521;SDS011;2783;48.730;8.006;2024-03-23T12:28:24;0.40;;;0.40;;
5521;SDS011;2783;48.730;8.006;2024-03-23T12:30:50;0.50;;;0.50;;
5521;SDS011;2783;48.730;8.006;2024-03-23T12:33:16;0.50;;;0.50;;
5521;SDS011;2783;48.730;8.006;2024-03-23T12:35:41;0.50;;;0.50;;
5521;SDS011;2783;48.730;8.006;2024-03-23T12:38:06;0.50;;;0.50;;
5521;SDS011;2783;48.730;8.006;2024-03-23T12:40:32;0.43;;;0.43;;
5521;SDS011;2783;48.730;8.006;2024-03-23T12:42:57;0.40;;;0.40;;
5521;SDS011;2783;48.730;8.006;2024-03-23T12:45:23;0.50;;;0.50;;
5521;SDS011;2783;48.730;8.006;2024-03-23T12:47:48;0.40;;;0.40;;
5521;SDS011;2783;48.730;8.006;2024-03-23T12:50:13;0.40;;;0.40;;
5521;SDS011;2783;48.730;8.006;2024-03-23T12:52:39;0.50;;;0.50;;
5521;SDS011;2783;48.730;8.006;2024-03-23T12:55:05;0.40;;;0.40;;
5521;SDS011;2783;48.730;8.006;2024-03-23T12:57:31;0.50;;;0.50;;
5521;SDS011;2783;48.730;8.006;2024-03-23T12:59:57;0.50;;;0.50;;
5521;SDS011;2783;48.730;8.006;2024-03-23T13:02:22;0.40;;;0.40;;
5521;SDS011;2783;48.730;8.006;2024-03-23T13:04:54;0.40;;;0.40;;
5521;SDS011;2783;48.730;8.006;2024-03-23T13:07:20;0.40;;;0.40;;
5521;SDS011;2783;48.730;8.006;2024-03-23T13:09:46;0.40;;;0.40;;
5521;SDS011;2783;48.730;8.006;2024-03-23T13:12:12;0.50;;;0.50;;
5521;SDS011;2783;48.730;8.006;2024-03-23T13:14:38;0.50;;;0.50;;
5521;SDS011;2783;48.730;8.006;2024-03-23T13:17:04;0.50;;;0.50;;
5521;SDS011;2783;48.730;8.006;2024-03-23T13:19:30;0.50;;;0.50;;
5521;SDS011;2783;48.730;8.006;2024-03-23T13:21:59;0.50;;;0.50;;
5521;SDS011;2783;48.730;8.006;2024-03-23T13:24:26;0.50;;;0.50;;
5521;SDS011;2783;48.730;8.006;2024-03-23T13:26:53;0.60;;;0.60;;
5521;SDS011;2783;48.730;8.006;2024-03-23T13:29:19;0.60;;;0.60;;
5521;SDS011;2783;48.730;8.006;2024-03-23T13:31:45;0.52;;;0.52;;
5521;SDS011;2783;48.730;8.006;2024-03-23T13:34:11;0.50;;;0.50;;
5521;SDS011;2783;48.730;8.006;2024-03-23T13:36:39;0.47;;;0.47;;
5521;SDS011;2783;48.730;8.006;2024-03-23T13:39:05;0.50;;;0.50;;
5521;SDS011;2783;48.730;8.006;2024-03-23T13:41:36;0.40;;;0.40;;
5521;SDS011;2783;48.730;8.006;2024-03-23T13:44:08;0.45;;;0.45;;
5521;SDS011;2783;48.730;8.006;2024-03-23T13:46:37;0.50;;;0.50;;
5521;SDS011;2783;48.730;8.006;2024-03-23T13:49:03;0.50;;;0.50;;
5521;SDS011;2783;48.730;8.006;2024-03-23T13:51:29;0.50;;;0.50;;
5521;SDS011;2783;48.730;8.006;2024-03-23T13:53:55;0.50;;;0.50;;
5521;SDS011;2783;48.730;8.006;2024-03-23T13:56:27;0.60;;;0.60;;
5521;SDS011;2783;48.730;8.006;2024-03-23T13:58:54;0.50;;;0.50;;
5521;SDS011;2783;48.730;8.006;2024-03-23T14:01:20;0.52;;;0.52;;
5521;SDS011;2783;48.730;8.006;2024-03-23T14:03:46;0.60;;;0.60;;
5521;SDS011;2783;48.730;8.006;2024-03-23T14:06:11;0.50;;;0.50;;
5521;SDS011;2783;48.730;8.006;2024-03-23T14:08:37;0.50;;;0.50;;
5521;SDS011;2783;48.730;8.006;2024-03-23T14:11:06;0.50;;;0.50;;
5521;SDS011;2783;48.730;8.006;2024-03-23T14:13:32;0.50;;;0.50;;
5521;SDS011;2783;48.730;8.006;2024-03-23T14:15:58;0.40;;;0.40;;
5521;SDS011;2783;48.730;8.006;2024-03-23T14:18:24;0.50;;;0.50;;
5521;SDS011;2783;48.730;8.006;2024-03-23T14:20:51;0.45;;;0.45;;
5521;SDS011;2783;48.730;8.006;2024-03-23T14:23:17;0.43;;;0.43;;
5521;SDS011;2783;48.730;8.006;2024-03-23T14:25:42;0.50;;;0.50;;
5521;SDS011;2783;48.730;8.006;2024-03-23T14:28:07;0.50;;;0.50;;
5521;SDS011;2783;48.730;8.006;2024-03-23T14:30:39;0.50;;;0.50;;
5521;SDS011;2783;48.730;8.006;2024-03-23T14:33:07;0.55;;;0.55;;
5521;SDS011;2783;48.730;8.006;2024-03-23T14:35:33;0.50;;;0.50;;
5521;SDS011;2783;48.730;8.006;2024-03-23T14:37:59;0.50;;;0.50;;
5521;SDS011;2783;48.730;8.006;2024-03-23T14:40:24;0.50;;;0.50;;
5521;SDS011;2783;48.730;8.006;2024-03-23T14:42:53;0.55;;;0.55;;
5521;SDS011;2783;48.730;8.006;2024-03-23T14:45:20;0.50;;;0.50;;
5521;SDS011;2783;48.730;8.006;2024-03-23T14:47:46;0.50;;;0.50;;
5521;SDS011;2783;48.730;8.006;2024-03-23T14:50:11;0.47;;;0.47;;
5521;SDS011;2783;48.730;8.006;2024-03-23T14:52:40;0.50;;;0.50;;
5521;SDS011;2783;48.730;8.006;2024-03-23T14:55:16;0.50;;;0.50;;
5521;SDS011;2783;48.730;8.006;2024-03-23T14:57:42;0.50;;;0.50;;
5521;SDS011;2783;48.730;8.006;2024-03-23T15:00:07;0.40;;;0.40;;
5521;SDS011;2783;48.730;8.006;2024-03-23T15:02:36;0.50;;;0.50;;
5521;SDS011;2783;48.730;8.006;2024-03-23T15:05:02;0.45;;;0.45;;
5521;SDS011;2783;48.730;8.006;2024-03-23T15:07:29;0.40;;;0.40;;
5521;SDS011;2783;48.730;8.006;2024-03-23T15:09:57;0.50;;;0.50;;
5521;SDS011;2783;48.730;8.006;2024-03-23T15:12:23;0.50;;;0.50;;
5521;SDS011;2783;48.730;8.006;2024-03-23T15:14:48;0.50;;;0.50;;
5521;SDS011;2783;48.730;8.006;2024-03-23T15:17:14;0.50;;;0.50;;
5521;SDS011;2783;48.730;8.006;2024-03-23T15:19:39;0.50;;;0.50;;
5521;SDS011;2783;48.730;8.006;2024-03-23T15:22:08;0.50;;;0.50;;
5521;SDS011;2783;48.730;8.006;2024-03-23T15:24:35;0.50;;;0.50;;
5521;SDS011;2783;48.730;8.006;2024-03-23T15:27:01;0.50;;;0.50;;
5521;SDS011;2783;48.730;8.006;2024-03-23T15:29:27;0.60;;;0.60;;
5521;SDS011;2783;48.730;8.006;2024-03-23T15:31:53;0.60;;;0.60;;
5521;SDS011;2783;48.730;8.006;2024-03-23T15:34:18;0.60;;;0.60;;
5521;SDS011;2783;48.730;8.006;2024-03-23T15:36:46;0.60;;;0.60;;
5521;SDS011;2783;48.730;8.006;2024-03-23T15:39:14;0.60;;;0.60;;
5521;SDS011;2783;48.730;8.006;2024-03-23T15:41:39;0.65;;;0.65;;
5521;SDS011;2783;48.730;8.006;2024-03-23T15:44:05;0.60;;;0.60;;
5521;SDS011;2783;48.730;8.006;2024-03-23T15:46:31;0.60;;;0.60;;
5521;SDS011;2783;48.730;8.006;2024-03-23T15:48:56;0.60;;;0.60;;
5521;SDS011;2783;48.730;8.006;2024-03-23T15:51:21;0.63;;;0.63;;
5521;SDS011;2783;48.730;8.006;2024-03-23T15:53:47;0.70;;;0.70;;
5521;SDS011;2783;48.730;8.006;2024-03-23T15:56:12;0.55;;;0.55;;
5521;SDS011;2783;48.730;8.006;2024-03-23T15:58:38;0.60;;;0.60;;
5521;SDS011;2783;48.730;8.006;2024-03-23T16:01:04;0.60;;;0.60;;
5521;SDS011;2783;48.730;8.006;2024-03-23T16:03:31;0.60;;;0.60;;
5521;SDS011;2783;48.730;8.006;2024-03-23T16:06:07;0.60;;;0.60;;
5521;SDS011;2783;48.730;8.006;2024-03-23T16:08:33;0.60;;;0.60;;
5521;SDS011;2783;48.730;8.006;2024-03-23T16:11:00;0.60;;;0.60;;
5521;SDS011;2783;48.730;8.006;2024-03-23T16:13:26;0.60;;;0.60;;
5521;SDS011;2783;48.730;8.006;2024-03-23T16:16:02;0.50;;;0.50;;
5521;SDS011;2783;48.730;8.006;2024-03-23T16:18:32;0.60;;;0.60;;
5521;SDS011;2783;48.730;8.006;2024-03-23T16:20:59;0.60;;;0.60;;